CYPR/YPR METAR and TAF weather

Enter ICAO airport designator
Station Type Date Time Source
CYPR METAR 2019/08/25 13:05 UTC NOAA

CYPR 251305Z AUTO 00000KT 3SM BR CLR 11/10 A3014 RMK SLP207


Station Type Date Time Source
CYPR Decoded METAR 2019/08/25 13:05 UTC NOAA

Station name not available
Aug 25, 2019 - 09:05 AM EDT / 2019.08.25 1305 UTC
Wind: Calm:0
Visibility: 3 mile(s):0
Sky conditions: clear
Weather: mist
Temperature: 51 F (11 C)
Dew Point: 50 F (10 C)
Relative Humidity: 93%
Pressure (altimeter): 30.14 in. Hg (1020 hPa)
ob: CYPR 251305Z AUTO 00000KT 3SM BR CLR 11/10 A3014 RMK SLP207
cycle: 13

Station Type Date Time Source
CYPR TAF 2019/08/25 13:42 UTC NOAA

TAF CYPR 251238Z 2513/2601 VRB03KT P6SM SCT008 BKN015
TEMPO 2513/2518 2SM -SHRA BR BKN008 OVC015 PROB30 2513/2518 1SM BR BKN005
FM251800 16006KT P6SM SCT040 BKN080
TEMPO 2518/2601 P6SM -SHRA SCT012 BKN030
RMK FCST BASED ON AUTO OBS. NXT FCST BY 251900Z

Example: see airport list